sensor_id;sensor_type;location;lat;lon;timestamp;P1;durP1;ratioP1;P2;durP2;ratioP2
76604;SDS011;65496;50.978;16.998;2023-03-18T00:02:25;7.38;;;5.68;;
76604;SDS011;65496;50.978;16.998;2023-03-18T00:04:52;8.77;;;5.82;;
76604;SDS011;65496;50.978;16.998;2023-03-18T00:07:18;8.50;;;6.03;;
76604;SDS011;65496;50.978;16.998;2023-03-18T00:09:44;8.30;;;5.75;;
76604;SDS011;65496;50.978;16.998;2023-03-18T00:12:10;7.90;;;5.70;;
76604;SDS011;65496;50.978;16.998;2023-03-18T00:14:37;8.52;;;5.55;;
76604;SDS011;65496;50.978;16.998;2023-03-18T00:17:04;9.65;;;5.80;;
76604;SDS011;65496;50.978;16.998;2023-03-18T00:19:30;7.47;;;5.47;;
76604;SDS011;65496;50.978;16.998;2023-03-18T00:21:58;7.20;;;5.80;;
76604;SDS011;65496;50.978;16.998;2023-03-18T00:24:24;8.77;;;5.50;;
76604;SDS011;65496;50.978;16.998;2023-03-18T00:26:52;7.78;;;5.85;;
76604;SDS011;65496;50.978;16.998;2023-03-18T00:29:19;7.07;;;5.30;;
76604;SDS011;65496;50.978;16.998;2023-03-18T00:31:45;10.68;;;6.25;;
76604;SDS011;65496;50.978;16.998;2023-03-18T00:34:11;8.27;;;5.35;;
76604;SDS011;65496;50.978;16.998;2023-03-18T00:36:37;7.28;;;5.25;;
76604;SDS011;65496;50.978;16.998;2023-03-18T00:39:04;7.47;;;5.50;;
76604;SDS011;65496;50.978;16.998;2023-03-18T00:41:30;7.35;;;5.07;;
76604;SDS011;65496;50.978;16.998;2023-03-18T00:44:02;7.75;;;5.40;;
76604;SDS011;65496;50.978;16.998;2023-03-18T00:46:30;7.68;;;5.35;;
76604;SDS011;65496;50.978;16.998;2023-03-18T00:48:59;7.72;;;5.60;;
76604;SDS011;65496;50.978;16.998;2023-03-18T00:51:28;7.15;;;5.13;;
76604;SDS011;65496;50.978;16.998;2023-03-18T00:53:57;7.57;;;5.35;;
76604;SDS011;65496;50.978;16.998;2023-03-18T00:56:24;7.20;;;5.47;;
76604;SDS011;65496;50.978;16.998;2023-03-18T00:58:51;7.72;;;5.45;;
76604;SDS011;65496;50.978;16.998;2023-03-18T01:01:19;6.70;;;5.03;;
76604;SDS011;65496;50.978;16.998;2023-03-18T01:03:46;8.10;;;5.70;;
76604;SDS011;65496;50.978;16.998;2023-03-18T01:06:15;6.80;;;5.00;;
76604;SDS011;65496;50.978;16.998;2023-03-18T01:08:43;8.27;;;5.38;;
76604;SDS011;65496;50.978;16.998;2023-03-18T01:11:09;6.30;;;4.90;;
76604;SDS011;65496;50.978;16.998;2023-03-18T01:13:36;7.20;;;5.65;;
76604;SDS011;65496;50.978;16.998;2023-03-18T01:16:03;8.75;;;5.68;;
76604;SDS011;65496;50.978;16.998;2023-03-18T01:18:30;8.30;;;5.70;;
76604;SDS011;65496;50.978;16.998;2023-03-18T01:20:56;7.90;;;5.82;;
76604;SDS011;65496;50.978;16.998;2023-03-18T01:23:23;8.80;;;6.03;;
76604;SDS011;65496;50.978;16.998;2023-03-18T01:25:49;6.80;;;4.95;;
76604;SDS011;65496;50.978;16.998;2023-03-18T01:28:16;7.38;;;4.88;;
76604;SDS011;65496;50.978;16.998;2023-03-18T01:30:42;7.40;;;4.97;;
76604;SDS011;65496;50.978;16.998;2023-03-18T01:33:10;8.57;;;5.40;;
76604;SDS011;65496;50.978;16.998;2023-03-18T01:35:36;9.20;;;6.22;;
76604;SDS011;65496;50.978;16.998;2023-03-18T01:38:03;8.02;;;5.05;;
76604;SDS011;65496;50.978;16.998;2023-03-18T01:40:31;7.28;;;5.20;;
76604;SDS011;65496;50.978;16.998;2023-03-18T01:43:04;8.35;;;5.63;;
76604;SDS011;65496;50.978;16.998;2023-03-18T01:45:41;6.78;;;5.15;;
76604;SDS011;65496;50.978;16.998;2023-03-18T01:48:13;7.70;;;5.40;;
76604;SDS011;65496;50.978;16.998;2023-03-18T01:50:42;8.70;;;5.30;;
76604;SDS011;65496;50.978;16.998;2023-03-18T01:53:13;7.53;;;5.13;;
76604;SDS011;65496;50.978;16.998;2023-03-18T01:55:41;8.13;;;5.80;;
76604;SDS011;65496;50.978;16.998;2023-03-18T01:58:14;8.15;;;5.50;;
76604;SDS011;65496;50.978;16.998;2023-03-18T02:00:51;6.93;;;5.22;;
76604;SDS011;65496;50.978;16.998;2023-03-18T02:03:22;8.35;;;5.47;;
76604;SDS011;65496;50.978;16.998;2023-03-18T02:05:48;6.95;;;4.57;;
76604;SDS011;65496;50.978;16.998;2023-03-18T02:08:15;7.38;;;5.18;;
76604;SDS011;65496;50.978;16.998;2023-03-18T02:10:42;7.30;;;4.88;;
76604;SDS011;65496;50.978;16.998;2023-03-18T02:13:09;6.55;;;4.80;;
76604;SDS011;65496;50.978;16.998;2023-03-18T02:15:47;6.90;;;4.88;;
76604;SDS011;65496;50.978;16.998;2023-03-18T02:18:19;7.28;;;5.15;;
76604;SDS011;65496;50.978;16.998;2023-03-18T02:21:02;7.50;;;4.97;;
76604;SDS011;65496;50.978;16.998;2023-03-18T02:23:49;7.35;;;4.65;;
76604;SDS011;65496;50.978;16.998;2023-03-18T02:29:24;6.97;;;4.97;;
76604;SDS011;65496;50.978;16.998;2023-03-18T02:31:52;6.00;;;4.47;;
76604;SDS011;65496;50.978;16.998;2023-03-18T02:34:21;7.57;;;4.70;;
76604;SDS011;65496;50.978;16.998;2023-03-18T02:36:50;6.70;;;4.50;;
76604;SDS011;65496;50.978;16.998;2023-03-18T02:39:16;6.75;;;4.65;;
76604;SDS011;65496;50.978;16.998;2023-03-18T02:41:42;7.15;;;4.57;;
76604;SDS011;65496;50.978;16.998;2023-03-18T02:44:10;5.38;;;3.90;;
76604;SDS011;65496;50.978;16.998;2023-03-18T02:49:11;6.82;;;4.93;;
76604;SDS011;65496;50.978;16.998;2023-03-18T02:51:38;6.32;;;4.20;;
76604;SDS011;65496;50.978;16.998;2023-03-18T02:54:07;6.70;;;4.68;;
76604;SDS011;65496;50.978;16.998;2023-03-18T02:56:39;5.38;;;4.10;;
76604;SDS011;65496;50.978;16.998;2023-03-18T02:59:07;6.60;;;4.40;;
76604;SDS011;65496;50.978;16.998;2023-03-18T03:01:34;5.45;;;3.97;;
76604;SDS011;65496;50.978;16.998;2023-03-18T03:04:02;5.55;;;4.18;;
76604;SDS011;65496;50.978;16.998;2023-03-18T03:06:29;5.93;;;4.25;;
76604;SDS011;65496;50.978;16.998;2023-03-18T03:08:55;6.20;;;4.20;;
76604;SDS011;65496;50.978;16.998;2023-03-18T03:11:22;5.93;;;4.25;;
76604;SDS011;65496;50.978;16.998;2023-03-18T03:13:48;5.47;;;4.32;;
76604;SDS011;65496;50.978;16.998;2023-03-18T03:16:15;7.63;;;4.63;;
76604;SDS011;65496;50.978;16.998;2023-03-18T03:18:42;5.97;;;4.05;;
76604;SDS011;65496;50.978;16.998;2023-03-18T03:21:09;5.60;;;4.10;;
76604;SDS011;65496;50.978;16.998;2023-03-18T03:23:37;5.70;;;3.95;;
76604;SDS011;65496;50.978;16.998;2023-03-18T03:26:04;6.38;;;4.20;;
76604;SDS011;65496;50.978;16.998;2023-03-18T03:28:31;6.47;;;4.10;;
76604;SDS011;65496;50.978;16.998;2023-03-18T03:30:58;5.80;;;4.40;;
76604;SDS011;65496;50.978;16.998;2023-03-18T03:33:25;4.85;;;3.95;;
76604;SDS011;65496;50.978;16.998;2023-03-18T03:35:52;5.53;;;4.13;;
76604;SDS011;65496;50.978;16.998;2023-03-18T03:38:19;6.35;;;4.15;;
76604;SDS011;65496;50.978;16.998;2023-03-18T03:40:45;5.47;;;4.18;;
76604;SDS011;65496;50.978;16.998;2023-03-18T03:43:12;6.82;;;3.92;;
76604;SDS011;65496;50.978;16.998;2023-03-18T03:45:40;6.07;;;4.00;;
76604;SDS011;65496;50.978;16.998;2023-03-18T03:48:07;5.70;;;4.00;;
76604;SDS011;65496;50.978;16.998;2023-03-18T03:50:34;6.32;;;4.40;;
76604;SDS011;65496;50.978;16.998;2023-03-18T03:53:01;6.68;;;4.22;;
76604;SDS011;65496;50.978;16.998;2023-03-18T03:55:30;5.53;;;3.53;;
76604;SDS011;65496;50.978;16.998;2023-03-18T03:57:56;7.53;;;4.30;;
76604;SDS011;65496;50.978;16.998;2023-03-18T04:00:22;5.13;;;3.90;;
76604;SDS011;65496;50.978;16.998;2023-03-18T04:02:49;4.95;;;3.72;;
76604;SDS011;65496;50.978;16.998;2023-03-18T04:05:18;5.07;;;3.88;;
76604;SDS011;65496;50.978;16.998;2023-03-18T04:07:46;5.05;;;3.90;;
76604;SDS011;65496;50.978;16.998;2023-03-18T04:10:13;6.43;;;4.00;;
76604;SDS011;65496;50.978;16.998;2023-03-18T04:12:42;4.50;;;3.38;;
76604;SDS011;65496;50.978;16.998;2023-03-18T04:15:11;5.10;;;3.70;;
76604;SDS011;65496;50.978;16.998;2023-03-18T04:17:39;5.10;;;3.70;;
76604;SDS011;65496;50.978;16.998;2023-03-18T04:20:06;5.82;;;4.13;;
76604;SDS011;65496;50.978;16.998;2023-03-18T04:22:32;5.13;;;3.60;;
76604;SDS011;65496;50.978;16.998;2023-03-18T04:24:58;4.85;;;3.83;;
76604;SDS011;65496;50.978;16.998;2023-03-18T04:27:24;5.20;;;3.55;;
76604;SDS011;65496;50.978;16.998;2023-03-18T04:29:52;4.60;;;3.47;;
76604;SDS011;65496;50.978;16.998;2023-03-18T04:32:19;5.38;;;3.60;;
76604;SDS011;65496;50.978;16.998;2023-03-18T04:34:45;5.38;;;3.75;;
76604;SDS011;65496;50.978;16.998;2023-03-18T04:37:12;5.55;;;3.22;;
76604;SDS011;65496;50.978;16.998;2023-03-18T04:39:39;4.95;;;3.35;;
76604;SDS011;65496;50.978;16.998;2023-03-18T04:42:06;4.35;;;3.10;;
76604;SDS011;65496;50.978;16.998;2023-03-18T04:44:32;5.35;;;3.75;;
76604;SDS011;65496;50.978;16.998;2023-03-18T04:46:59;4.75;;;3.88;;
76604;SDS011;65496;50.978;16.998;2023-03-18T04:49:25;4.78;;;3.30;;
76604;SDS011;65496;50.978;16.998;2023-03-18T04:51:51;4.70;;;3.22;;
76604;SDS011;65496;50.978;16.998;2023-03-18T04:54:18;4.53;;;3.63;;
76604;SDS011;65496;50.978;16.998;2023-03-18T04:56:44;4.63;;;3.53;;
76604;SDS011;65496;50.978;16.998;2023-03-18T04:59:11;5.00;;;3.33;;
76604;SDS011;65496;50.978;16.998;2023-03-18T05:01:37;4.88;;;2.90;;
76604;SDS011;65496;50.978;16.998;2023-03-18T05:04:03;4.40;;;3.42;;
76604;SDS011;65496;50.978;16.998;2023-03-18T05:06:31;4.35;;;3.30;;
76604;SDS011;65496;50.978;16.998;2023-03-18T05:08:59;5.05;;;3.38;;
76604;SDS011;65496;50.978;16.998;2023-03-18T05:11:25;4.72;;;3.38;;
76604;SDS011;65496;50.978;16.998;2023-03-18T05:13:52;4.38;;;2.95;;
76604;SDS011;65496;50.978;16.998;2023-03-18T05:16:18;3.70;;;2.85;;
76604;SDS011;65496;50.978;16.998;2023-03-18T05:18:44;4.60;;;3.20;;
76604;SDS011;65496;50.978;16.998;2023-03-18T05:21:11;4.57;;;3.08;;
76604;SDS011;65496;50.978;16.998;2023-03-18T05:23:37;4.00;;;2.95;;
76604;SDS011;65496;50.978;16.998;2023-03-18T05:26:04;4.22;;;2.97;;
76604;SDS011;65496;50.978;16.998;2023-03-18T05:28:30;4.13;;;3.22;;
76604;SDS011;65496;50.978;16.998;2023-03-18T05:30:58;4.25;;;2.97;;
76604;SDS011;65496;50.978;16.998;2023-03-18T05:33:25;4.70;;;3.20;;
76604;SDS011;65496;50.978;16.998;2023-03-18T05:35:50;4.00;;;3.13;;
76604;SDS011;65496;50.978;16.998;2023-03-18T05:38:17;4.38;;;3.35;;
76604;SDS011;65496;50.978;16.998;2023-03-18T05:40:43;3.75;;;3.10;;
76604;SDS011;65496;50.978;16.998;2023-03-18T05:43:09;4.75;;;3.00;;
76604;SDS011;65496;50.978;16.998;2023-03-18T05:45:36;4.60;;;3.22;;
76604;SDS011;65496;50.978;16.998;2023-03-18T05:48:03;3.42;;;2.70;;
76604;SDS011;65496;50.978;16.998;2023-03-18T05:50:33;3.78;;;2.75;;
76604;SDS011;65496;50.978;16.998;2023-03-18T05:53:02;3.75;;;2.95;;
76604;SDS011;65496;50.978;16.998;2023-03-18T05:55:30;3.65;;;2.85;;
76604;SDS011;65496;50.978;16.998;2023-03-18T05:57:57;4.75;;;2.88;;
76604;SDS011;65496;50.978;16.998;2023-03-18T06:00:25;3.90;;;2.80;;
76604;SDS011;65496;50.978;16.998;2023-03-18T06:02:53;4.68;;;3.00;;
76604;SDS011;65496;50.978;16.998;2023-03-18T06:05:20;4.70;;;2.90;;
76604;SDS011;65496;50.978;16.998;2023-03-18T06:07:47;3.80;;;2.85;;
76604;SDS011;65496;50.978;16.998;2023-03-18T06:10:13;4.13;;;3.08;;
76604;SDS011;65496;50.978;16.998;2023-03-18T06:12:40;4.03;;;2.90;;
76604;SDS011;65496;50.978;16.998;2023-03-18T06:15:07;4.07;;;2.50;;
76604;SDS011;65496;50.978;16.998;2023-03-18T06:17:34;3.72;;;2.67;;
76604;SDS011;65496;50.978;16.998;2023-03-18T06:20:00;3.00;;;2.70;;
76604;SDS011;65496;50.978;16.998;2023-03-18T06:22:27;3.55;;;2.70;;
76604;SDS011;65496;50.978;16.998;2023-03-18T06:24:52;3.65;;;2.80;;
76604;SDS011;65496;50.978;16.998;2023-03-18T06:27:19;4.05;;;2.92;;
76604;SDS011;65496;50.978;16.998;2023-03-18T06:29:45;3.83;;;2.53;;
76604;SDS011;65496;50.978;16.998;2023-03-18T06:32:11;3.25;;;2.80;;
76604;SDS011;65496;50.978;16.998;2023-03-18T06:34:37;3.33;;;2.67;;
76604;SDS011;65496;50.978;16.998;2023-03-18T06:37:03;5.15;;;2.90;;
76604;SDS011;65496;50.978;16.998;2023-03-18T06:39:29;3.05;;;2.53;;
76604;SDS011;65496;50.978;16.998;2023-03-18T06:41:55;4.75;;;3.03;;
76604;SDS011;65496;50.978;16.998;2023-03-18T06:44:22;3.60;;;2.85;;
76604;SDS011;65496;50.978;16.998;2023-03-18T06:46:49;3.67;;;2.63;;
76604;SDS011;65496;50.978;16.998;2023-03-18T06:49:15;3.80;;;2.50;;
76604;SDS011;65496;50.978;16.998;2023-03-18T06:51:42;3.28;;;2.45;;
76604;SDS011;65496;50.978;16.998;2023-03-18T06:54:08;3.13;;;2.50;;
76604;SDS011;65496;50.978;16.998;2023-03-18T06:56:35;3.65;;;2.60;;
76604;SDS011;65496;50.978;16.998;2023-03-18T06:59:03;4.30;;;2.65;;
76604;SDS011;65496;50.978;16.998;2023-03-18T07:01:34;3.28;;;2.50;;
76604;SDS011;65496;50.978;16.998;2023-03-18T07:04:01;2.95;;;2.22;;
76604;SDS011;65496;50.978;16.998;2023-03-18T07:06:31;3.95;;;2.60;;
76604;SDS011;65496;50.978;16.998;2023-03-18T07:08:57;3.42;;;2.58;;
76604;SDS011;65496;50.978;16.998;2023-03-18T07:11:24;3.28;;;2.30;;
76604;SDS011;65496;50.978;16.998;2023-03-18T07:13:50;3.88;;;2.42;;
76604;SDS011;65496;50.978;16.998;2023-03-18T07:16:18;3.95;;;2.72;;
76604;SDS011;65496;50.978;16.998;2023-03-18T07:18:43;3.85;;;2.63;;
76604;SDS011;65496;50.978;16.998;2023-03-18T07:21:10;3.28;;;2.30;;
76604;SDS011;65496;50.978;16.998;2023-03-18T07:23:37;3.47;;;2.60;;
76604;SDS011;65496;50.978;16.998;2023-03-18T07:26:03;4.03;;;2.50;;
76604;SDS011;65496;50.978;16.998;2023-03-18T07:28:29;4.00;;;2.90;;
76604;SDS011;65496;50.978;16.998;2023-03-18T07:30:56;3.88;;;2.58;;
76604;SDS011;65496;50.978;16.998;2023-03-18T07:33:22;3.63;;;2.63;;
76604;SDS011;65496;50.978;16.998;2023-03-18T07:35:48;4.55;;;3.08;;
76604;SDS011;65496;50.978;16.998;2023-03-18T07:38:15;3.30;;;2.60;;
76604;SDS011;65496;50.978;16.998;2023-03-18T07:40:42;2.55;;;2.20;;
76604;SDS011;65496;50.978;16.998;2023-03-18T07:43:08;3.20;;;2.67;;
76604;SDS011;65496;50.978;16.998;2023-03-18T07:45:35;3.72;;;2.70;;
76604;SDS011;65496;50.978;16.998;2023-03-18T07:48:01;3.75;;;2.72;;
76604;SDS011;65496;50.978;16.998;2023-03-18T07:50:27;3.05;;;2.65;;
76604;SDS011;65496;50.978;16.998;2023-03-18T07:52:53;3.30;;;2.55;;
76604;SDS011;65496;50.978;16.998;2023-03-18T07:55:19;3.80;;;2.92;;
76604;SDS011;65496;50.978;16.998;2023-03-18T07:57:45;4.70;;;2.92;;
76604;SDS011;65496;50.978;16.998;2023-03-18T08:00:12;3.08;;;2.50;;
76604;SDS011;65496;50.978;16.998;2023-03-18T08:02:39;3.20;;;2.60;;
76604;SDS011;65496;50.978;16.998;2023-03-18T08:05:06;3.42;;;2.60;;
76604;SDS011;65496;50.978;16.998;2023-03-18T08:07:33;3.95;;;2.95;;
76604;SDS011;65496;50.978;16.998;2023-03-18T08:09:59;3.00;;;2.30;;
76604;SDS011;65496;50.978;16.998;2023-03-18T08:12:26;3.13;;;2.45;;
76604;SDS011;65496;50.978;16.998;2023-03-18T08:14:53;3.20;;;2.50;;
76604;SDS011;65496;50.978;16.998;2023-03-18T08:17:19;3.25;;;2.50;;
76604;SDS011;65496;50.978;16.998;2023-03-18T08:19:45;3.88;;;2.53;;
76604;SDS011;65496;50.978;16.998;2023-03-18T08:22:13;3.95;;;2.63;;
76604;SDS011;65496;50.978;16.998;2023-03-18T08:24:40;3.45;;;2.40;;
76604;SDS011;65496;50.978;16.998;2023-03-18T08:27:07;3.42;;;2.50;;
76604;SDS011;65496;50.978;16.998;2023-03-18T08:29:34;3.83;;;2.50;;
76604;SDS011;65496;50.978;16.998;2023-03-18T08:31:59;3.92;;;2.80;;
76604;SDS011;65496;50.978;16.998;2023-03-18T08:34:26;3.50;;;2.70;;
76604;SDS011;65496;50.978;16.998;2023-03-18T08:36:52;3.70;;;2.55;;
76604;SDS011;65496;50.978;16.998;2023-03-18T08:39:18;3.65;;;2.58;;
76604;SDS011;65496;50.978;16.998;2023-03-18T08:41:45;3.08;;;2.40;;
76604;SDS011;65496;50.978;16.998;2023-03-18T08:44:11;2.90;;;2.42;;
76604;SDS011;65496;50.978;16.998;2023-03-18T08:46:37;2.88;;;2.35;;
76604;SDS011;65496;50.978;16.998;2023-03-18T08:49:04;2.90;;;2.28;;
76604;SDS011;65496;50.978;16.998;2023-03-18T08:51:31;4.22;;;2.30;;
76604;SDS011;65496;50.978;16.998;2023-03-18T08:53:57;3.50;;;2.47;;
76604;SDS011;65496;50.978;16.998;2023-03-18T08:56:24;3.28;;;2.60;;
76604;SDS011;65496;50.978;16.998;2023-03-18T08:58:50;4.25;;;2.60;;
76604;SDS011;65496;50.978;16.998;2023-03-18T09:01:16;3.13;;;2.40;;
76604;SDS011;65496;50.978;16.998;2023-03-18T09:03:44;3.40;;;2.58;;
76604;SDS011;65496;50.978;16.998;2023-03-18T09:06:11;3.22;;;2.40;;
76604;SDS011;65496;50.978;16.998;2023-03-18T09:08:37;4.03;;;2.53;;
76604;SDS011;65496;50.978;16.998;2023-03-18T09:11:04;3.25;;;2.55;;
76604;SDS011;65496;50.978;16.998;2023-03-18T09:13:32;2.97;;;2.35;;
76604;SDS011;65496;50.978;16.998;2023-03-18T09:15:58;2.60;;;2.20;;
76604;SDS011;65496;50.978;16.998;2023-03-18T09:18:24;4.10;;;2.70;;
76604;SDS011;65496;50.978;16.998;2023-03-18T09:20:50;4.28;;;2.70;;
76604;SDS011;65496;50.978;16.998;2023-03-18T09:23:17;4.03;;;2.75;;
76604;SDS011;65496;50.978;16.998;2023-03-18T09:25:43;3.38;;;2.35;;
76604;SDS011;65496;50.978;16.998;2023-03-18T09:28:11;3.42;;;2.40;;
76604;SDS011;65496;50.978;16.998;2023-03-18T09:30:38;3.13;;;2.58;;
76604;SDS011;65496;50.978;16.998;2023-03-18T09:33:05;3.03;;;2.50;;
76604;SDS011;65496;50.978;16.998;2023-03-18T09:35:32;3.22;;;2.45;;
76604;SDS011;65496;50.978;16.998;2023-03-18T09:37:59;2.90;;;2.40;;
76604;SDS011;65496;50.978;16.998;2023-03-18T09:40:26;3.33;;;2.50;;
76604;SDS011;65496;50.978;16.998;2023-03-18T09:45:34;3.55;;;2.50;;
76604;SDS011;65496;50.978;16.998;2023-03-18T09:50:45;3.03;;;2.30;;
76604;SDS011;65496;50.978;16.998;2023-03-18T09:53:22;4.03;;;2.65;;
76604;SDS011;65496;50.978;16.998;2023-03-18T09:55:59;3.08;;;2.42;;
76604;SDS011;65496;50.978;16.998;2023-03-18T10:01:19;3.50;;;2.50;;
76604;SDS011;65496;50.978;16.998;2023-03-18T10:03:50;2.97;;;2.25;;
76604;SDS011;65496;50.978;16.998;2023-03-18T10:06:25;3.40;;;2.72;;
76604;SDS011;65496;50.978;16.998;2023-03-18T10:11:40;3.95;;;2.42;;
76604;SDS011;65496;50.978;16.998;2023-03-18T10:17:05;3.72;;;2.42;;
76604;SDS011;65496;50.978;16.998;2023-03-18T10:19:35;3.33;;;2.50;;
76604;SDS011;65496;50.978;16.998;2023-03-18T10:22:26;3.13;;;2.45;;
76604;SDS011;65496;50.978;16.998;2023-03-18T10:25:06;3.10;;;2.30;;
76604;SDS011;65496;50.978;16.998;2023-03-18T10:33:18;3.83;;;2.40;;
76604;SDS011;65496;50.978;16.998;2023-03-18T10:38:53;3.38;;;2.50;;
76604;SDS011;65496;50.978;16.998;2023-03-18T10:41:28;3.50;;;2.33;;
76604;SDS011;65496;50.978;16.998;2023-03-18T10:43:56;3.70;;;3.00;;
76604;SDS011;65496;50.978;16.998;2023-03-18T10:46:23;4.18;;;2.80;;
76604;SDS011;65496;50.978;16.998;2023-03-18T10:49:25;2.97;;;2.47;;
76604;SDS011;65496;50.978;16.998;2023-03-18T10:51:49;3.63;;;2.97;;
76604;SDS011;65496;50.978;16.998;2023-03-18T10:56:51;4.68;;;2.85;;
76604;SDS011;65496;50.978;16.998;2023-03-18T10:59:18;3.60;;;2.85;;
76604;SDS011;65496;50.978;16.998;2023-03-18T11:01:48;3.22;;;2.80;;
76604;SDS011;65496;50.978;16.998;2023-03-18T11:04:18;3.75;;;2.65;;
76604;SDS011;65496;50.978;16.998;2023-03-18T11:06:49;4.55;;;2.92;;
76604;SDS011;65496;50.978;16.998;2023-03-18T11:09:18;4.47;;;3.22;;
76604;SDS011;65496;50.978;16.998;2023-03-18T11:11:55;5.28;;;3.28;;
76604;SDS011;65496;50.978;16.998;2023-03-18T11:14:26;4.57;;;3.28;;
76604;SDS011;65496;50.978;16.998;2023-03-18T11:17:04;4.30;;;2.90;;
76604;SDS011;65496;50.978;16.998;2023-03-18T11:19:46;6.07;;;3.75;;
76604;SDS011;65496;50.978;16.998;2023-03-18T11:22:17;4.82;;;3.33;;
76604;SDS011;65496;50.978;16.998;2023-03-18T11:24:59;6.45;;;4.03;;
76604;SDS011;65496;50.978;16.998;2023-03-18T11:27:32;4.60;;;3.33;;
76604;SDS011;65496;50.978;16.998;2023-03-18T11:30:03;4.85;;;3.65;;
76604;SDS011;65496;50.978;16.998;2023-03-18T11:32:51;4.57;;;3.40;;
76604;SDS011;65496;50.978;16.998;2023-03-18T11:35:59;4.28;;;3.20;;
76604;SDS011;65496;50.978;16.998;2023-03-18T11:38:31;4.60;;;3.20;;
76604;SDS011;65496;50.978;16.998;2023-03-18T11:46:19;4.63;;;3.45;;
76604;SDS011;65496;50.978;16.998;2023-03-18T11:48:49;5.18;;;3.70;;
76604;SDS011;65496;50.978;16.998;2023-03-18T12:07:45;4.75;;;3.40;;
76604;SDS011;65496;50.978;16.998;2023-03-18T12:10:26;5.53;;;3.47;;
76604;SDS011;65496;50.978;16.998;2023-03-18T12:24:23;5.70;;;3.63;;
76604;SDS011;65496;50.978;16.998;2023-03-18T12:32:25;6.15;;;4.00;;
76604;SDS011;65496;50.978;16.998;2023-03-18T12:45:42;4.53;;;3.50;;
76604;SDS011;65496;50.978;16.998;2023-03-18T12:48:12;6.68;;;4.07;;
76604;SDS011;65496;50.978;16.998;2023-03-18T12:50:48;6.03;;;4.45;;
76604;SDS011;65496;50.978;16.998;2023-03-18T12:53:29;4.90;;;4.13;;
76604;SDS011;65496;50.978;16.998;2023-03-18T12:55:59;4.50;;;3.80;;
76604;SDS011;65496;50.978;16.998;2023-03-18T12:58:31;6.55;;;4.00;;
76604;SDS011;65496;50.978;16.998;2023-03-18T13:01:23;4.82;;;3.85;;
76604;SDS011;65496;50.978;16.998;2023-03-18T13:03:59;6.90;;;3.80;;
76604;SDS011;65496;50.978;16.998;2023-03-18T13:06:40;6.32;;;3.97;;
76604;SDS011;65496;50.978;16.998;2023-03-18T13:17:40;5.95;;;4.25;;
76604;SDS011;65496;50.978;16.998;2023-03-18T13:25:20;6.18;;;3.50;;
76604;SDS011;65496;50.978;16.998;2023-03-18T13:42:17;9.93;;;6.53;;
76604;SDS011;65496;50.978;16.998;2023-03-18T13:45:01;11.10;;;6.18;;
76604;SDS011;65496;50.978;16.998;2023-03-18T13:47:32;8.10;;;6.70;;
76604;SDS011;65496;50.978;16.998;2023-03-18T13:50:04;8.60;;;5.70;;
76604;SDS011;65496;50.978;16.998;2023-03-18T13:52:47;6.13;;;4.85;;
76604;SDS011;65496;50.978;16.998;2023-03-18T13:55:28;7.93;;;5.43;;
76604;SDS011;65496;50.978;16.998;2023-03-18T14:00:43;5.82;;;4.60;;
76604;SDS011;65496;50.978;16.998;2023-03-18T14:08:32;8.00;;;5.55;;
76604;SDS011;65496;50.978;16.998;2023-03-18T14:13:43;8.05;;;5.90;;
76604;SDS011;65496;50.978;16.998;2023-03-18T14:16:10;7.18;;;5.60;;
76604;SDS011;65496;50.978;16.998;2023-03-18T14:18:37;8.55;;;6.55;;
76604;SDS011;65496;50.978;16.998;2023-03-18T14:21:04;8.32;;;6.18;;
76604;SDS011;65496;50.978;16.998;2023-03-18T14:24:48;9.23;;;5.60;;
76604;SDS011;65496;50.978;16.998;2023-03-18T14:26:46;8.60;;;5.00;;
76604;SDS011;65496;50.978;16.998;2023-03-18T14:29:49;6.20;;;4.72;;
76604;SDS011;65496;50.978;16.998;2023-03-18T14:37:29;6.97;;;4.18;;
76604;SDS011;65496;50.978;16.998;2023-03-18T14:40:02;6.28;;;4.03;;
76604;SDS011;65496;50.978;16.998;2023-03-18T14:42:38;5.72;;;4.43;;
76604;SDS011;65496;50.978;16.998;2023-03-18T14:51:01;6.10;;;4.30;;
76604;SDS011;65496;50.978;16.998;2023-03-18T14:53:37;6.18;;;4.30;;
76604;SDS011;65496;50.978;16.998;2023-03-18T14:56:20;6.80;;;4.90;;
76604;SDS011;65496;50.978;16.998;2023-03-18T14:58:50;5.22;;;4.03;;
76604;SDS011;65496;50.978;16.998;2023-03-18T15:03:47;6.78;;;4.28;;
76604;SDS011;65496;50.978;16.998;2023-03-18T15:06:18;4.70;;;3.60;;
76604;SDS011;65496;50.978;16.998;2023-03-18T15:08:50;5.10;;;4.05;;
76604;SDS011;65496;50.978;16.998;2023-03-18T15:11:21;5.63;;;4.00;;
76604;SDS011;65496;50.978;16.998;2023-03-18T15:13:48;6.78;;;4.00;;
76604;SDS011;65496;50.978;16.998;2023-03-18T15:16:18;4.80;;;3.85;;
76604;SDS011;65496;50.978;16.998;2023-03-18T15:18:44;5.22;;;3.88;;
76604;SDS011;65496;50.978;16.998;2023-03-18T15:21:22;5.65;;;4.10;;
76604;SDS011;65496;50.978;16.998;2023-03-18T15:23:57;5.78;;;4.35;;
76604;SDS011;65496;50.978;16.998;2023-03-18T15:26:29;6.18;;;4.05;;
76604;SDS011;65496;50.978;16.998;2023-03-18T15:29:16;6.10;;;4.65;;
76604;SDS011;65496;50.978;16.998;2023-03-18T15:32:05;7.78;;;4.88;;
76604;SDS011;65496;50.978;16.998;2023-03-18T15:34:44;6.28;;;4.55;;
76604;SDS011;65496;50.978;16.998;2023-03-18T15:42:55;6.22;;;4.40;;
76604;SDS011;65496;50.978;16.998;2023-03-18T15:45:29;7.93;;;4.45;;
76604;SDS011;65496;50.978;16.998;2023-03-18T15:48:01;6.95;;;4.50;;
76604;SDS011;65496;50.978;16.998;2023-03-18T15:50:49;6.38;;;4.40;;
76604;SDS011;65496;50.978;16.998;2023-03-18T15:53:19;5.55;;;4.20;;
76604;SDS011;65496;50.978;16.998;2023-03-18T15:55:57;5.53;;;4.18;;
76604;SDS011;65496;50.978;16.998;2023-03-18T15:58:35;5.45;;;4.15;;
76604;SDS011;65496;50.978;16.998;2023-03-18T16:03:31;5.55;;;4.50;;
76604;SDS011;65496;50.978;16.998;2023-03-18T16:05:59;7.00;;;4.40;;
76604;SDS011;65496;50.978;16.998;2023-03-18T16:08:30;6.10;;;4.68;;
76604;SDS011;65496;50.978;16.998;2023-03-18T16:10:56;6.85;;;4.40;;
76604;SDS011;65496;50.978;16.998;2023-03-18T16:13:27;6.32;;;4.30;;
76604;SDS011;65496;50.978;16.998;2023-03-18T16:15:56;5.53;;;4.00;;
76604;SDS011;65496;50.978;16.998;2023-03-18T16:18:23;5.45;;;4.20;;
76604;SDS011;65496;50.978;16.998;2023-03-18T16:20:49;5.88;;;4.40;;
76604;SDS011;65496;50.978;16.998;2023-03-18T16:23:17;4.95;;;4.32;;
76604;SDS011;65496;50.978;16.998;2023-03-18T16:25:44;4.90;;;3.75;;
76604;SDS011;65496;50.978;16.998;2023-03-18T16:28:17;5.28;;;4.07;;
76604;SDS011;65496;50.978;16.998;2023-03-18T16:30:45;4.93;;;3.78;;
76604;SDS011;65496;50.978;16.998;2023-03-18T16:33:13;5.18;;;4.03;;
76604;SDS011;65496;50.978;16.998;2023-03-18T16:35:41;5.55;;;4.00;;
76604;SDS011;65496;50.978;16.998;2023-03-18T16:38:10;5.93;;;4.35;;
76604;SDS011;65496;50.978;16.998;2023-03-18T16:40:39;5.72;;;4.28;;
76604;SDS011;65496;50.978;16.998;2023-03-18T16:43:14;5.80;;;4.30;;
76604;SDS011;65496;50.978;16.998;2023-03-18T16:45:41;5.15;;;4.40;;
76604;SDS011;65496;50.978;16.998;2023-03-18T16:48:09;6.03;;;4.32;;
76604;SDS011;65496;50.978;16.998;2023-03-18T16:50:39;5.68;;;4.20;;
76604;SDS011;65496;50.978;16.998;2023-03-18T16:53:14;5.57;;;4.25;;
76604;SDS011;65496;50.978;16.998;2023-03-18T16:55:46;5.78;;;3.97;;
76604;SDS011;65496;50.978;16.998;2023-03-18T16:58:15;6.22;;;4.53;;
76604;SDS011;65496;50.978;16.998;2023-03-18T17:00:44;6.38;;;4.30;;
76604;SDS011;65496;50.978;16.998;2023-03-18T17:03:14;6.43;;;4.93;;
76604;SDS011;65496;50.978;16.998;2023-03-18T17:05:42;4.85;;;4.18;;
76604;SDS011;65496;50.978;16.998;2023-03-18T17:08:10;6.63;;;5.20;;